Time,TemperatureF,DewpointF,PressureIn,WindDirection,WindDirectionDegrees,WindSpeedMPH,WindSpeedGustMPH,Humidity,HourlyPrecipIn,Conditions,Clouds,dailyrainin,SoftwareType,DateUTC
2013-04-25 00:01:00,34.7,30.7,30.04,SW,227,13.8,13.8,85,0.00,RA,,0.00,WeatherDisplay:10.37,2013-04-25 05:01:00,
2013-04-25 00:06:00,34.7,30.7,30.04,NW,310,17.3,17.3,85,0.00,RA,,0.00,WeatherDisplay:10.37,2013-04-25 05:06:00,
2013-04-25 00:11:00,34.7,30.7,30.04,WNW,284,15.0,15.0,85,0.00,CLR,,0.00,WeatherDisplay:10.37,2013-04-25 05:11:00,
2013-04-25 00:16:00,34.6,30.6,30.04,NNW,346,12.7,12.7,85,0.00,CLR,,0.00,WeatherDisplay:10.37,2013-04-25 05:16:00,
2013-04-25 00:21:00,34.6,30.6,30.04,NW,307,10.4,10.4,85,0.00,CLR,,0.00,WeatherDisplay:10.37,2013-04-25 05:21:00,
2013-04-25 00:26:00,34.5,30.5,30.05,NNW,336,17.3,17.3,85,0.00,CLR,,0.00,WeatherDisplay:10.37,2013-04-25 05:26:00,
2013-04-25 00:31:00,34.4,30.4,30.05,WNW,283,11.5,11.5,85,0.00,CLR,,0.00,WeatherDisplay:10.37,2013-04-25 05:31:00,
2013-04-25 00:36:00,34.4,30.4,30.05,NW,309,6.9,6.9,85,0.00,CLR,,0.00,WeatherDisplay:10.37,2013-04-25 05:36:00,
2013-04-25 00:41:00,34.4,30.4,30.05,WNW,294,11.5,11.5,85,0.00,CLR,,0.00,WeatherDisplay:10.37,2013-04-25 05:41:00,
2013-04-25 00:46:00,34.1,30.1,30.05,West,276,10.4,10.4,85,0.00,CLR,,0.00,WeatherDisplay:10.37,2013-04-25 05:46:00,
2013-04-25 00:51:00,33.9,29.9,30.06,WNW,285,12.7,12.7,85,0.00,CLR,,0.00,WeatherDisplay:10.37,2013-04-25 05:51:00,
2013-04-25 00:56:00,33.9,29.9,30.06,WNW,302,16.1,16.1,85,0.00,CLR,,0.00,WeatherDisplay:10.37,2013-04-25 05:56:00,
2013-04-25 01:01:00,33.8,29.8,30.06,WNW,294,16.1,16.1,85,0.00,CLR,,0.00,WeatherDisplay:10.37,2013-04-25 06:01:00,
2013-04-25 01:06:00,33.7,29.7,30.06,West,276,18.4,18.4,85,0.00,CLR,,0.00,WeatherDisplay:10.37,2013-04-25 06:06:00,
2013-04-25 01:11:00,33.5,29.5,30.06,WNW,294,11.5,11.5,85,0.00,CLR,,0.00,WeatherDisplay:10.37,2013-04-25 06:11:00,
2013-04-25 01:16:00,33.4,29.4,30.07,West,267,16.1,16.1,85,0.00,CLR,,0.00,WeatherDisplay:10.37,2013-04-25 06:16:00,
2013-04-25 01:21:00,33.3,29.3,30.07,NW,313,12.7,12.7,85,0.00,CLR,,0.00,WeatherDisplay:10.37,2013-04-25 06:21:00,
2013-04-25 01:26:00,33.2,29.2,30.07,NW,314,4.6,4.6,85,0.00,CLR,,0.00,WeatherDisplay:10.37,2013-04-25 06:26:00,
2013-04-25 01:31:00,33.2,29.5,30.07,NW,304,11.5,11.5,86,0.00,CLR,,0.00,WeatherDisplay:10.37,2013-04-25 06:31:00,
2013-04-25 01:36:00,33.1,29.4,30.07,WNW,298,15.0,15.0,86,0.00,CLR,,0.00,WeatherDisplay:10.37,2013-04-25 06:36:00,
2013-04-25 01:41:00,33.0,29.3,30.08,West,281,12.7,12.7,86,0.00,CLR,,0.00,WeatherDisplay:10.37,2013-04-25 06:41:00,
2013-04-25 01:46:00,32.9,28.9,30.08,West,277,11.5,11.5,85,0.00,CLR,,0.00,WeatherDisplay:10.37,2013-04-25 06:46:00,
2013-04-25 01:51:00,32.9,29.2,30.08,NW,306,9.2,9.2,86,0.00,CLR,,0.00,WeatherDisplay:10.37,2013-04-25 06:51:00,
2013-04-25 01:56:00,32.9,29.2,30.08,WNW,294,16.1,16.1,86,0.00,CLR,,0.00,WeatherDisplay:10.37,2013-04-25 06:56:00,
2013-04-25 02:01:00,32.9,29.2,30.08,NW,315,8.1,8.1,86,0.00,CLR,,0.00,WeatherDisplay:10.37,2013-04-25 07:01:00,
2013-04-25 02:06:00,32.8,28.8,30.08,West,279,10.4,10.4,85,0.00,CLR,,0.00,WeatherDisplay:10.37,2013-04-25 07:06:00,
2013-04-25 02:11:00,32.8,28.8,30.08,WNW,299,11.5,11.5,85,0.00,CLR,,0.00,WeatherDisplay:10.37,2013-04-25 07:11:00,
2013-04-25 02:16:00,32.8,28.8,30.08,NW,310,11.5,11.5,85,0.00,CLR,,0.00,WeatherDisplay:10.37,2013-04-25 07:16:00,
2013-04-25 02:21:00,32.7,28.7,30.08,NW,309,10.4,10.4,85,0.00,CLR,,0.00,WeatherDisplay:10.37,2013-04-25 07:21:00,
2013-04-25 02:26:00,32.7,28.7,30.08,WNW,292,11.5,11.5,85,0.00,CLR,,0.00,WeatherDisplay:10.37,2013-04-25 07:26:00,
2013-04-25 02:31:00,32.6,28.3,30.09,West,269,11.5,11.5,84,0.00,CLR,,0.00,WeatherDisplay:10.37,2013-04-25 07:31:00,
2013-04-25 02:36:00,32.6,28.3,30.09,West,281,11.5,11.5,84,0.00,CLR,,0.00,WeatherDisplay:10.37,2013-04-25 07:36:00,
2013-04-25 02:41:00,32.6,28.3,30.09,West,269,11.5,11.5,84,0.00,CLR,,0.00,WeatherDisplay:10.37,2013-04-25 07:41:00,
2013-04-25 02:46:00,32.6,28.0,30.09,WNW,296,11.5,11.5,83,0.00,CLR,,0.00,WeatherDisplay:10.37,2013-04-25 07:46:00,
2013-04-25 02:51:00,32.6,28.0,30.09,WNW,303,11.5,11.5,83,0.00,CLR,,0.00,WeatherDisplay:10.37,2013-04-25 07:51:00,
2013-04-25 02:56:00,32.6,28.0,30.09,WNW,290,11.5,11.5,83,0.00,CLR,,0.00,WeatherDisplay:10.37,2013-04-25 07:56:00,
2013-04-25 03:01:00,32.6,28.0,30.09,WNW,300,9.2,9.2,83,0.00,CLR,,0.00,WeatherDisplay:10.37,2013-04-25 08:01:00,
2013-04-25 03:06:00,32.6,28.0,30.09,WNW,286,10.4,10.4,83,0.00,CLR,,0.00,WeatherDisplay:10.37,2013-04-25 08:06:00,
2013-04-25 03:11:00,32.6,28.0,30.09,NW,325,9.2,9.2,83,0.00,CLR,,0.00,WeatherDisplay:10.37,2013-04-25 08:11:00,
2013-04-25 03:17:00,32.6,28.0,30.09,NNW,327,6.9,6.9,83,0.00,CLR,,0.00,WeatherDisplay:10.37,2013-04-25 08:17:00,
2013-04-25 03:22:00,32.6,28.0,30.10,WNW,282,6.9,6.9,83,0.00,CLR,,0.00,WeatherDisplay:10.37,2013-04-25 08:22:00,
2013-04-25 03:27:00,32.6,28.0,30.10,WNW,293,9.2,9.2,83,0.00,CLR,,0.00,WeatherDisplay:10.37,2013-04-25 08:27:00,
2013-04-25 03:32:00,32.6,28.0,30.10,WNW,291,5.8,5.8,83,0.00,CLR,,0.00,WeatherDisplay:10.37,2013-04-25 08:32:00,
2013-04-25 03:37:00,32.5,27.9,30.10,WNW,284,11.5,11.5,83,0.00,CLR,,0.00,WeatherDisplay:10.37,2013-04-25 08:37:00,
2013-04-25 03:42:00,32.5,27.9,30.10,WNW,292,5.8,6.7,83,0.00,CLR,,0.00,WeatherDisplay:10.37,2013-04-25 08:42:00,
2013-04-25 03:47:00,32.4,27.8,30.11,WNW,292,5.8,5.8,83,0.00,CLR,,0.00,WeatherDisplay:10.37,2013-04-25 08:47:00,
2013-04-25 03:52:00,32.4,27.5,30.11,WNW,288,6.0,6.4,82,0.00,CLR,,0.00,WeatherDisplay:10.37,2013-04-25 08:52:00,
2013-04-25 03:57:00,32.4,27.5,30.11,WNW,300,5.8,5.8,82,0.00,CLR,,0.00,WeatherDisplay:10.37,2013-04-25 08:57:00,
2013-04-25 04:02:00,32.4,27.5,30.11,West,265,11.5,11.5,82,0.00,CLR,,0.00,WeatherDisplay:10.37,2013-04-25 09:02:00,
2013-04-25 04:07:00,32.3,27.4,30.11,WNW,296,7.0,7.0,82,0.00,CLR,,0.00,WeatherDisplay:10.37,2013-04-25 09:07:00,
2013-04-25 04:12:00,32.3,27.4,30.12,WNW,292,11.5,11.5,82,0.00,CLR,,0.00,WeatherDisplay:10.37,2013-04-25 09:12:00,
2013-04-25 04:17:00,32.3,27.4,30.12,WNW,291,9.2,9.2,82,0.00,CLR,,0.00,WeatherDisplay:10.37,2013-04-25 09:17:00,
2013-04-25 04:22:00,32.2,27.3,30.12,WNW,294,11.5,11.5,82,0.00,CLR,,0.00,WeatherDisplay:10.37,2013-04-25 09:22:00,
2013-04-25 04:27:00,32.2,27.0,30.12,West,277,11.5,11.5,81,0.00,CLR,,0.00,WeatherDisplay:10.37,2013-04-25 09:27:00,
2013-04-25 04:32:00,32.1,26.9,30.13,WNW,283,12.7,12.7,81,0.00,CLR,,0.00,WeatherDisplay:10.37,2013-04-25 09:32:00,
2013-04-25 04:37:00,32.2,27.0,30.13,WNW,297,5.8,5.8,81,0.00,CLR,,0.00,WeatherDisplay:10.37,2013-04-25 09:37:00,
2013-04-25 04:42:00,32.1,26.9,30.13,WNW,294,10.4,10.4,81,0.00,CLR,,0.00,WeatherDisplay:10.37,2013-04-25 09:42:00,
2013-04-25 04:47:00,32.2,27.0,30.13,WNW,295,5.8,5.8,81,0.00,CLR,,0.00,WeatherDisplay:10.37,2013-04-25 09:47:00,
2013-04-25 04:52:00,32.1,27.2,30.13,NW,310,5.8,5.8,82,0.00,CLR,,0.00,WeatherDisplay:10.37,2013-04-25 09:52:00,
2013-04-25 04:57:00,32.1,26.9,30.14,West,265,6.9,6.9,81,0.00,CLR,,0.00,WeatherDisplay:10.37,2013-04-25 09:57:00,
2013-04-25 05:02:00,32.1,26.9,30.14,WNW,293,8.1,8.1,81,0.00,CLR,,0.00,WeatherDisplay:10.37,2013-04-25 10:02:00,
2013-04-25 05:07:00,32.1,26.9,30.14,WNW,294,6.9,6.9,81,0.00,CLR,,0.00,WeatherDisplay:10.37,2013-04-25 10:07:00,
2013-04-25 05:12:00,32.1,26.9,30.14,WNW,300,9.2,9.2,81,0.00,CLR,,0.00,WeatherDisplay:10.37,2013-04-25 10:12:00,
2013-04-25 05:17:00,32.1,26.9,30.14,West,276,9.2,9.2,81,0.00,CLR,,0.00,WeatherDisplay:10.37,2013-04-25 10:17:00,
2013-04-25 05:22:00,32.0,26.8,30.15,WNW,299,12.7,12.7,81,0.00,CLR,,0.00,WeatherDisplay:10.37,2013-04-25 10:22:00,
2013-04-25 05:27:00,32.0,26.8,30.15,WNW,292,11.5,11.5,81,0.00,CLR,,0.00,WeatherDisplay:10.37,2013-04-25 10:27:00,
2013-04-25 05:32:00,32.0,26.8,30.15,WNW,288,6.9,6.9,81,0.00,CLR,,0.00,WeatherDisplay:10.37,2013-04-25 10:32:00,
2013-04-25 05:37:00,32.0,27.1,30.15,WNW,293,5.8,5.8,82,0.00,CLR,,0.00,WeatherDisplay:10.37,2013-04-25 10:37:00,
2013-04-25 05:42:00,31.9,27.0,30.15,WNW,296,10.4,10.4,82,0.00,CLR,,0.00,WeatherDisplay:10.37,2013-04-25 10:42:00,
2013-04-25 05:47:00,31.9,27.0,30.15,NW,311,5.8,5.8,82,0.00,CLR,,0.00,WeatherDisplay:10.37,2013-04-25 10:47:00,
2013-04-25 05:52:00,31.9,27.0,30.16,WNW,291,5.8,5.8,82,0.00,CLR,,0.00,WeatherDisplay:10.37,2013-04-25 10:52:00,
2013-04-25 05:57:00,31.8,26.9,30.16,WSW,240,5.8,5.8,82,0.00,CLR,,0.00,WeatherDisplay:10.37,2013-04-25 10:57:00,
2013-04-25 06:02:00,31.8,26.9,30.16,West,280,7.0,7.0,82,0.00,CLR,,0.00,WeatherDisplay:10.37,2013-04-25 11:02:00,
2013-04-25 06:07:00,31.8,26.9,30.16,WNW,291,9.2,9.2,82,0.00,CLR,,0.00,WeatherDisplay:10.37,2013-04-25 11:07:00,
2013-04-25 06:12:00,31.7,26.8,30.16,West,281,6.9,6.9,82,0.00,CLR,,0.00,WeatherDisplay:10.37,2013-04-25 11:12:00,
2013-04-25 06:17:00,31.7,26.8,30.17,WNW,295,4.6,4.6,82,0.00,CLR,,0.00,WeatherDisplay:10.37,2013-04-25 11:17:00,
2013-04-25 06:22:00,31.6,26.7,30.17,West,264,8.1,8.1,82,0.00,CLR,,0.00,WeatherDisplay:10.37,2013-04-25 11:22:00,
2013-04-25 06:27:00,31.6,26.7,30.17,West,267,11.5,11.5,82,0.00,CLR,,0.00,WeatherDisplay:10.37,2013-04-25 11:27:00,
2013-04-25 06:32:00,31.6,26.4,30.17,WNW,291,10.4,10.4,81,0.00,CLR,,0.00,WeatherDisplay:10.37,2013-04-25 11:32:00,
2013-04-25 06:37:00,31.5,26.3,30.17,West,279,4.6,4.6,81,0.00,CLR,,0.00,WeatherDisplay:10.37,2013-04-25 11:37:00,
2013-04-25 06:42:00,31.6,26.4,30.17,WNW,285,6.9,6.9,81,0.00,CLR,,0.00,WeatherDisplay:10.37,2013-04-25 11:42:00,
2013-04-25 06:47:00,31.6,26.4,30.17,WNW,282,4.6,4.6,81,0.00,CLR,,0.00,WeatherDisplay:10.37,2013-04-25 11:47:00,
2013-04-25 06:52:00,31.6,26.4,30.18,WNW,284,9.2,9.2,81,0.00,CLR,,0.00,WeatherDisplay:10.37,2013-04-25 11:52:00,
2013-04-25 06:57:00,31.6,26.4,30.18,WNW,287,5.0,5.0,81,0.00,CLR,,0.00,WeatherDisplay:10.37,2013-04-25 11:57:00,
2013-04-25 07:02:00,31.6,26.4,30.18,West,261,5.8,5.8,81,0.00,CLR,,0.00,WeatherDisplay:10.37,2013-04-25 12:02:00,
2013-04-25 07:07:00,31.7,26.8,30.18,West,265,4.6,4.6,82,0.00,CLR,,0.00,WeatherDisplay:10.37,2013-04-25 12:07:00,
2013-04-25 07:12:00,31.6,26.7,30.19,WNW,288,4.6,4.6,82,0.00,CLR,,0.00,WeatherDisplay:10.37,2013-04-25 12:12:00,
2013-04-25 07:17:00,31.6,26.7,30.19,West,275,4.6,4.6,82,0.00,CLR,,0.00,WeatherDisplay:10.37,2013-04-25 12:17:00,
2013-04-25 07:22:00,31.5,26.6,30.20,West,279,5.8,5.8,82,0.00,CLR,,0.00,WeatherDisplay:10.37,2013-04-25 12:22:00,
2013-04-25 07:27:00,31.5,26.6,30.20,West,271,9.2,9.2,82,0.00,CLR,,0.00,WeatherDisplay:10.37,2013-04-25 12:27:00,
2013-04-25 07:32:00,31.4,26.5,30.20,WSW,254,4.0,4.0,82,0.00,CLR,,0.00,WeatherDisplay:10.37,2013-04-25 12:32:00,
2013-04-25 07:37:00,31.4,26.5,30.20,West,269,3.5,0.0,82,0.00,CLR,,0.00,WeatherDisplay:10.37,2013-04-25 12:37:00,
2013-04-25 07:42:00,31.4,26.5,30.20,WNW,298,6.9,6.9,82,0.00,CLR,,0.00,WeatherDisplay:10.37,2013-04-25 12:42:00,
2013-04-25 07:47:00,31.5,26.6,30.21,West,281,5.8,5.8,82,0.00,CLR,,0.00,WeatherDisplay:10.37,2013-04-25 12:47:00,
2013-04-25 07:52:00,31.6,26.7,30.21,WNW,288,10.4,10.4,82,0.00,CLR,,0.00,WeatherDisplay:10.37,2013-04-25 12:52:00,
2013-04-25 07:57:00,31.8,26.9,30.21,WNW,301,6.9,6.9,82,0.00,CLR,,0.00,WeatherDisplay:10.37,2013-04-25 12:57:00,
2013-04-25 08:02:00,31.8,26.6,30.22,West,271,7.0,7.0,81,0.00,CLR,,0.00,WeatherDisplay:10.37,2013-04-25 13:02:00,
2013-04-25 08:07:00,32.0,26.8,30.22,West,269,5.8,5.8,81,0.00,CLR,,0.00,WeatherDisplay:10.37,2013-04-25 13:07:00,
2013-04-25 08:12:00,32.4,27.2,30.22,WNW,294,8.1,8.1,81,0.00,CLR,,0.00,WeatherDisplay:10.37,2013-04-25 13:12:00,
2013-04-25 08:17:00,32.4,26.9,30.22,NW,304,10.4,10.4,80,0.00,CLR,,0.00,WeatherDisplay:10.37,2013-04-25 13:17:00,
2013-04-25 08:22:00,32.3,26.8,30.23,WNW,296,6.9,6.9,80,0.00,CLR,,0.00,WeatherDisplay:10.37,2013-04-25 13:22:00,
2013-04-25 08:27:00,32.5,27.0,30.23,West,277,5.8,5.8,80,0.00,CLR,,0.00,WeatherDisplay:10.37,2013-04-25 13:27:00,
2013-04-25 08:32:00,32.7,26.9,30.23,WSW,253,5.8,5.8,79,0.00,CLR,,0.00,WeatherDisplay:10.37,2013-04-25 13:32:00,
2013-04-25 08:37:00,33.0,27.2,30.23,WSW,248,4.6,4.6,79,0.00,CLR,,0.00,WeatherDisplay:10.37,2013-04-25 13:37:00,
2013-04-25 08:42:00,33.0,27.2,30.23,WSW,243,10.4,10.4,79,0.00,CLR,,0.00,WeatherDisplay:10.37,2013-04-25 13:42:00,
2013-04-25 08:47:00,33.2,27.4,30.24,NW,310,6.9,6.9,79,0.00,CLR,,0.00,WeatherDisplay:10.37,2013-04-25 13:47:00,
2013-04-25 08:52:00,33.1,27.0,30.24,West,277,9.2,9.2,78,0.00,CLR,,0.00,WeatherDisplay:10.37,2013-04-25 13:52:00,
2013-04-25 08:57:00,33.4,27.3,30.24,West,273,12.7,12.7,78,0.00,CLR,,0.00,WeatherDisplay:10.37,2013-04-25 13:57:00,
2013-04-25 09:02:00,33.5,27.4,30.24,WSW,254,11.5,11.5,78,0.00,CLR,,0.00,WeatherDisplay:10.37,2013-04-25 14:02:00,
2013-04-25 09:07:00,33.8,27.4,30.24,WSW,248,8.1,8.1,77,0.00,CLR,,0.00,WeatherDisplay:10.37,2013-04-25 14:07:00,
2013-04-25 09:12:00,34.1,27.3,30.23,WSW,257,9.2,9.2,76,0.00,CLR,,0.00,WeatherDisplay:10.37,2013-04-25 14:12:00,
2013-04-25 09:17:00,34.4,27.6,30.23,West,272,9.0,9.0,76,0.00,CLR,,0.00,WeatherDisplay:10.37,2013-04-25 14:17:00,
2013-04-25 09:22:00,34.7,27.9,30.23,SW,227,5.8,5.8,76,0.00,CLR,,0.00,WeatherDisplay:10.37,2013-04-25 14:22:00,
2013-04-25 09:27:00,34.7,27.6,30.24,SSW,197,6.0,6.0,75,0.00,CLR,,0.00,WeatherDisplay:10.37,2013-04-25 14:27:00,
2013-04-25 09:32:00,34.9,27.8,30.24,WSW,246,9.2,9.2,75,0.00,CLR,,0.00,WeatherDisplay:10.37,2013-04-25 14:32:00,
2013-04-25 09:37:00,34.6,27.5,30.24,WNW,286,4.6,4.6,75,0.00,CLR,,0.00,WeatherDisplay:10.37,2013-04-25 14:37:00,
2013-04-25 09:42:00,34.4,27.3,30.24,SW,221,11.5,11.5,75,0.00,CLR,,0.00,WeatherDisplay:10.37,2013-04-25 14:42:00,
2013-04-25 09:47:00,34.4,27.6,30.24,WSW,242,11.5,11.5,76,0.00,CLR,,0.00,WeatherDisplay:10.37,2013-04-25 14:47:00,
2013-04-25 09:52:00,34.2,27.1,30.25,West,271,4.6,4.6,75,0.00,CLR,,0.00,WeatherDisplay:10.37,2013-04-25 14:52:00,
2013-04-25 09:57:00,34.1,27.3,30.25,West,260,10.4,10.4,76,0.00,CLR,,0.00,WeatherDisplay:10.37,2013-04-25 14:57:00,
2013-04-25 10:02:00,34.4,27.3,30.25,WNW,296,10.4,10.4,75,0.00,CLR,,0.00,WeatherDisplay:10.37,2013-04-25 15:02:00,
2013-04-25 10:07:00,34.2,27.4,30.25,NW,304,3.5,0.0,76,0.00,CLR,,0.00,WeatherDisplay:10.37,2013-04-25 15:07:00,
2013-04-25 10:12:00,34.7,27.6,30.25,SW,235,11.5,11.5,75,0.00,CLR,,0.00,WeatherDisplay:10.37,2013-04-25 15:12:00,
2013-04-25 10:17:00,35.6,28.1,30.25,West,261,9.2,9.2,74,0.00,CLR,,0.00,WeatherDisplay:10.37,2013-04-25 15:17:00,
2013-04-25 10:22:00,35.6,27.8,30.26,West,269,6.9,6.9,73,0.00,CLR,,0.00,WeatherDisplay:10.37,2013-04-25 15:22:00,
2013-04-25 10:28:00,36.0,28.2,30.26,SW,229,6.9,6.9,73,0.00,CLR,,0.00,WeatherDisplay:10.37,2013-04-25 15:28:00,
2013-04-25 10:33:00,36.6,28.8,30.26,WNW,300,5.8,5.8,73,0.00,CLR,,0.00,WeatherDisplay:10.37,2013-04-25 15:33:00,
2013-04-25 10:38:00,35.7,27.6,30.26,SW,222,9.2,9.2,72,0.00,CLR,,0.00,WeatherDisplay:10.37,2013-04-25 15:38:00,
2013-04-25 10:43:00,36.1,28.3,30.26,WNW,284,6.9,6.9,73,0.00,CLR,,0.00,WeatherDisplay:10.37,2013-04-25 15:43:00,
2013-04-25 10:48:00,36.2,28.0,30.26,West,267,9.2,9.2,72,0.00,CLR,,0.00,WeatherDisplay:10.37,2013-04-25 15:48:00,
2013-04-25 10:53:00,37.0,29.1,30.26,WSW,258,10.4,10.4,73,0.00,CLR,,0.00,WeatherDisplay:10.37,2013-04-25 15:53:00,
2013-04-25 10:58:00,37.3,28.8,30.26,WSW,249,6.9,6.9,71,0.00,CLR,,0.00,WeatherDisplay:10.37,2013-04-25 15:58:00,
2013-04-25 11:03:00,37.7,28.8,30.26,WNW,292,5.8,5.8,70,0.00,CLR,,0.00,WeatherDisplay:10.37,2013-04-25 16:03:00,
2013-04-25 11:08:00,37.2,28.3,30.26,West,275,8.0,8.0,70,0.00,CLR,,0.00,WeatherDisplay:10.37,2013-04-25 16:08:00,
2013-04-25 11:13:00,38.0,28.7,30.26,WSW,256,8.1,8.1,69,0.00,CLR,,0.00,WeatherDisplay:10.37,2013-04-25 16:13:00,
2013-04-25 11:18:00,38.9,29.6,30.25,SSW,209,6.9,6.9,69,0.00,CLR,,0.00,WeatherDisplay:10.37,2013-04-25 16:18:00,
2013-04-25 11:23:00,39.5,29.1,30.25,SW,233,5.8,5.8,66,0.00,CLR,,0.00,WeatherDisplay:10.37,2013-04-25 16:23:00,
2013-04-25 11:28:00,39.7,29.3,30.25,WSW,249,11.5,11.5,66,0.00,CLR,,0.00,WeatherDisplay:10.37,2013-04-25 16:28:00,
2013-04-25 11:33:00,39.5,28.7,30.25,WNW,285,6.9,6.9,65,0.00,CLR,,0.00,WeatherDisplay:10.37,2013-04-25 16:33:00,
2013-04-25 11:38:00,38.9,28.1,30.25,SW,230,8.1,8.1,65,0.00,CLR,,0.00,WeatherDisplay:10.37,2013-04-25 16:38:00,
2013-04-25 11:43:00,38.8,29.1,30.25,WSW,249,3.5,3.5,68,0.00,CLR,,0.00,WeatherDisplay:10.37,2013-04-25 16:43:00,
2013-04-25 11:48:00,39.3,28.9,30.25,WNW,298,9.2,9.2,66,0.00,CLR,,0.00,WeatherDisplay:10.37,2013-04-25 16:48:00,
2013-04-25 11:53:00,39.7,28.9,30.25,WNW,291,10.4,10.4,65,0.00,CLR,,0.00,WeatherDisplay:10.37,2013-04-25 16:53:00,
2013-04-25 11:58:00,40.2,29.0,30.25,WSW,246,10.4,10.4,64,0.00,CLR,,0.00,WeatherDisplay:10.37,2013-04-25 16:58:00,
2013-04-25 12:03:00,40.8,28.8,30.25,SW,233,6.9,6.9,62,0.00,CLR,,0.00,WeatherDisplay:10.37,2013-04-25 17:03:00,
2013-04-25 12:08:00,41.5,29.8,30.25,WSW,255,9.2,9.2,63,0.00,CLR,,0.00,WeatherDisplay:10.37,2013-04-25 17:08:00,
2013-04-25 12:13:00,41.0,29.4,30.25,WNW,302,4.6,4.6,63,0.00,CLR,,0.00,WeatherDisplay:10.37,2013-04-25 17:13:00,
2013-04-25 12:18:00,41.3,29.3,30.25,WNW,282,11.5,11.5,62,0.00,CLR,,0.00,WeatherDisplay:10.37,2013-04-25 17:18:00,
2013-04-25 12:23:00,41.2,29.9,30.25,NW,321,11.5,11.5,64,0.00,CLR,,0.00,WeatherDisplay:10.37,2013-04-25 17:23:00,
2013-04-25 12:28:00,41.3,29.6,30.25,WSW,240,3.5,3.5,63,0.00,CLR,,0.00,WeatherDisplay:10.37,2013-04-25 17:28:00,
2013-04-25 12:33:00,42.0,29.1,30.25,WNW,293,12.7,12.7,60,0.00,CLR,,0.00,WeatherDisplay:10.37,2013-04-25 17:33:00,
2013-04-25 12:38:00,41.3,28.9,30.24,WSW,247,6.9,6.9,61,0.00,CLR,,0.00,WeatherDisplay:10.37,2013-04-25 17:38:00,
2013-04-25 12:43:00,40.9,28.5,30.24,West,279,11.5,11.5,61,0.00,CLR,,0.00,WeatherDisplay:10.37,2013-04-25 17:43:00,
2013-04-25 12:48:00,42.0,29.1,30.24,South,182,10.4,10.4,60,0.00,CLR,,0.00,WeatherDisplay:10.37,2013-04-25 17:48:00,
2013-04-25 12:53:00,42.8,29.9,30.24,WNW,283,11.5,11.5,60,0.00,CLR,,0.00,WeatherDisplay:10.37,2013-04-25 17:53:00,
2013-04-25 12:58:00,42.2,29.3,30.24,WNW,302,6.9,6.9,60,0.00,CLR,,0.00,WeatherDisplay:10.37,2013-04-25 17:58:00,
2013-04-25 13:03:00,42.2,29.3,30.24,West,259,10.4,10.4,60,0.00,CLR,,0.00,WeatherDisplay:10.37,2013-04-25 18:03:00,
2013-04-25 13:08:00,42.5,30.0,30.24,West,263,3.5,3.5,61,0.00,CLR,,0.00,WeatherDisplay:10.37,2013-04-25 18:08:00,
2013-04-25 13:13:00,43.4,29.6,30.24,SW,221,11.5,11.5,58,0.00,CLR,,0.00,WeatherDisplay:10.37,2013-04-25 18:13:00,
2013-04-25 13:18:00,43.7,29.5,30.24,SW,217,6.9,6.9,57,0.00,CLR,,0.00,WeatherDisplay:10.37,2013-04-25 18:18:00,
2013-04-25 13:23:00,44.4,29.7,30.24,West,275,10.4,10.4,56,0.00,CLR,,0.00,WeatherDisplay:10.37,2013-04-25 18:23:00,
2013-04-25 13:28:00,43.7,29.9,30.23,SSW,211,12.7,12.7,58,0.00,CLR,,0.00,WeatherDisplay:10.37,2013-04-25 18:28:00,
2013-04-25 13:33:00,43.9,29.2,30.23,WSW,244,6.9,6.9,56,0.00,CLR,,0.00,WeatherDisplay:10.37,2013-04-25 18:33:00,
2013-04-25 13:38:00,44.2,30.3,30.23,WNW,287,3.5,3.5,58,0.00,CLR,,0.00,WeatherDisplay:10.37,2013-04-25 18:38:00,
2013-04-25 13:43:00,44.7,29.1,30.23,South,173,3.5,0.0,54,0.00,CLR,,0.00,WeatherDisplay:10.37,2013-04-25 18:43:00,
2013-04-25 13:48:00,45.5,30.3,30.23,WSW,251,8.1,8.1,55,0.00,CLR,,0.00,WeatherDisplay:10.37,2013-04-25 18:48:00,
2013-04-25 13:53:00,45.0,28.9,30.23,SSW,211,10.4,10.4,53,0.00,CLR,,0.00,WeatherDisplay:10.37,2013-04-25 18:53:00,
2013-04-25 13:58:00,44.5,29.8,30.23,SSW,206,12.7,12.7,56,0.00,CLR,,0.00,WeatherDisplay:10.37,2013-04-25 18:58:00,
2013-04-25 14:03:00,45.0,30.7,30.23,SW,230,6.9,6.9,57,0.00,CLR,,0.00,WeatherDisplay:10.37,2013-04-25 19:03:00,
2013-04-25 14:08:00,45.0,29.8,30.23,WSW,241,11.5,11.5,55,0.00,CLR,,0.00,WeatherDisplay:10.37,2013-04-25 19:08:00,
2013-04-25 14:13:00,46.1,30.4,30.23,SW,232,7.0,7.0,54,0.00,CLR,,0.00,WeatherDisplay:10.37,2013-04-25 19:13:00,
2013-04-25 14:18:00,46.5,29.3,30.22,SSW,209,15.0,15.0,51,0.00,CLR,,0.00,WeatherDisplay:10.37,2013-04-25 19:18:00,
2013-04-25 14:23:00,46.1,29.9,30.23,SW,219,10.4,10.4,53,0.00,CLR,,0.00,WeatherDisplay:10.37,2013-04-25 19:23:00,
2013-04-25 14:28:00,46.8,29.6,30.22,SW,222,8.1,8.1,51,0.00,CLR,,0.00,WeatherDisplay:10.37,2013-04-25 19:28:00,
2013-04-25 14:33:00,46.8,29.6,30.22,WSW,250,10.4,0.0,51,0.00,CLR,,0.00,WeatherDisplay:10.37,2013-04-25 19:33:00,
2013-04-25 14:38:00,47.6,30.8,30.22,SSE,165,0.0,0.0,52,0.00,CLR,,0.00,WeatherDisplay:10.37,2013-04-25 19:38:00,
2013-04-25 14:43:00,49.2,31.3,30.22,SSW,193,1.2,0.0,50,0.00,CLR,,0.00,WeatherDisplay:10.37,2013-04-25 19:43:00,
2013-04-25 14:48:00,49.0,30.1,30.21,SW,217,10.4,10.4,48,0.00,CLR,,0.00,WeatherDisplay:10.37,2013-04-25 19:48:00,
2013-04-25 14:53:00,48.6,29.3,30.22,South,190,10.4,10.4,47,0.00,CLR,,0.00,WeatherDisplay:10.37,2013-04-25 19:53:00,
2013-04-25 14:58:00,47.5,28.3,30.22,SSW,213,9.2,9.2,47,0.00,CLR,,0.00,WeatherDisplay:10.37,2013-04-25 19:58:00,
2013-04-25 15:03:00,47.9,29.1,30.21,WSW,254,5.8,5.8,48,0.00,CLR,,0.00,WeatherDisplay:10.37,2013-04-25 20:03:00,
2013-04-25 15:08:00,48.0,28.7,30.21,SSW,196,11.0,11.0,47,0.00,CLR,,0.00,WeatherDisplay:10.37,2013-04-25 20:08:00,
2013-04-25 15:13:00,48.4,28.0,30.21,SW,221,11.5,11.5,45,0.00,CLR,,0.00,WeatherDisplay:10.37,2013-04-25 20:13:00,
2013-04-25 15:18:00,48.2,29.4,30.21,SW,215,6.9,6.9,48,0.00,CLR,,0.00,WeatherDisplay:10.37,2013-04-25 20:18:00,
2013-04-25 15:23:00,49.2,28.7,30.21,SSW,209,4.6,4.6,45,0.00,CLR,,0.00,WeatherDisplay:10.37,2013-04-25 20:23:00,
2013-04-25 15:28:00,48.8,26.7,30.21,West,280,11.5,11.5,42,0.00,CLR,,0.00,WeatherDisplay:10.37,2013-04-25 20:28:00,
2013-04-25 15:33:00,47.9,27.6,30.21,South,182,9.0,9.0,45,0.00,CLR,,0.00,WeatherDisplay:10.37,2013-04-25 20:33:00,
2013-04-25 15:38:00,48.8,28.4,30.20,WSW,241,6.9,6.9,45,0.00,CLR,,0.00,WeatherDisplay:10.37,2013-04-25 20:38:00,
2013-04-25 15:43:00,49.2,27.6,30.21,WSW,246,10.0,10.0,43,0.00,CLR,,0.00,WeatherDisplay:10.37,2013-04-25 20:43:00,
2013-04-25 15:48:00,49.1,28.7,30.21,West,266,9.2,9.2,45,0.00,CLR,,0.00,WeatherDisplay:10.37,2013-04-25 20:48:00,
2013-04-25 15:53:00,49.4,27.8,30.21,WSW,248,16.1,16.1,43,0.00,CLR,,0.00,WeatherDisplay:10.37,2013-04-25 20:53:00,
2013-04-25 15:58:00,49.2,27.6,30.21,WSW,246,13.8,13.8,43,0.00,CLR,,0.00,WeatherDisplay:10.37,2013-04-25 20:58:00,
2013-04-25 16:03:00,49.8,28.2,30.21,SSW,192,4.6,4.6,43,0.00,CLR,,0.00,WeatherDisplay:10.37,2013-04-25 21:03:00,
2013-04-25 16:08:00,50.0,27.8,30.21,SW,219,12.7,12.7,42,0.00,CLR,,0.00,WeatherDisplay:10.37,2013-04-25 21:08:00,
2013-04-25 16:14:00,49.9,27.7,30.20,SW,226,9.2,9.2,42,0.00,CLR,,0.00,WeatherDisplay:10.37,2013-04-25 21:14:00,
2013-04-25 16:19:00,50.1,27.3,30.20,SW,232,5.8,5.8,41,0.00,CLR,,0.00,WeatherDisplay:10.37,2013-04-25 21:19:00,
2013-04-25 16:24:00,50.4,28.1,30.20,SSW,195,8.1,8.1,42,0.00,CLR,,0.00,WeatherDisplay:10.37,2013-04-25 21:24:00,
2013-04-25 16:29:00,50.1,27.9,30.20,SSW,211,9.2,9.2,42,0.00,CLR,,0.00,WeatherDisplay:10.37,2013-04-25 21:29:00,
2013-04-25 16:34:00,50.8,27.9,30.20,SW,234,5.8,5.8,41,0.00,CLR,,0.00,WeatherDisplay:10.37,2013-04-25 21:34:00,
2013-04-25 16:39:00,50.6,27.7,30.20,SW,227,11.5,11.5,41,0.00,CLR,,0.00,WeatherDisplay:10.37,2013-04-25 21:39:00,
2013-04-25 16:44:00,50.1,27.3,30.20,SW,217,8.1,8.1,41,0.00,CLR,,0.00,WeatherDisplay:10.37,2013-04-25 21:44:00,
2013-04-25 16:49:00,50.4,27.0,30.20,SSE,151,10.4,10.4,40,0.00,CLR,,0.00,WeatherDisplay:10.37,2013-04-25 21:49:00,
2013-04-25 16:54:00,50.3,26.9,30.19,WSW,248,10.4,10.4,40,0.00,CLR,,0.00,WeatherDisplay:10.37,2013-04-25 21:54:00,
2013-04-25 16:59:00,50.5,27.0,30.19,West,270,10.4,10.4,40,0.00,CLR,,0.00,WeatherDisplay:10.37,2013-04-25 21:59:00,
2013-04-25 17:04:00,50.8,27.3,30.19,WSW,248,1.2,1.2,40,0.00,CLR,,0.00,WeatherDisplay:10.37,2013-04-25 22:04:00,
2013-04-25 17:09:00,51.3,27.8,30.19,West,280,5.8,5.8,40,0.00,CLR,,0.00,WeatherDisplay:10.37,2013-04-25 22:09:00,
2013-04-25 17:14:00,50.8,27.3,30.18,WSW,244,10.4,10.4,40,0.00,CLR,,0.00,WeatherDisplay:10.37,2013-04-25 22:14:00,
2013-04-25 17:19:00,51.5,29.1,30.19,South,188,2.3,2.3,42,0.00,CLR,,0.00,WeatherDisplay:10.37,2013-04-25 22:19:00,
2013-04-25 17:24:00,51.7,27.5,30.18,SW,219,3.5,3.5,39,0.00,CLR,,0.00,WeatherDisplay:10.37,2013-04-25 22:24:00,
2013-04-25 17:29:00,51.9,28.9,30.18,South,172,1.2,1.2,41,0.00,CLR,,0.00,WeatherDisplay:10.37,2013-04-25 22:29:00,
2013-04-25 17:34:00,51.8,28.8,30.18,SSW,196,3.5,3.5,41,0.00,CLR,,0.00,WeatherDisplay:10.37,2013-04-25 22:34:00,
2013-04-25 17:39:00,51.6,28.0,30.18,SE,146,4.6,4.6,40,0.00,CLR,,0.00,WeatherDisplay:10.37,2013-04-25 22:39:00,
2013-04-25 17:44:00,51.1,28.2,30.18,ESE,122,5.8,5.8,41,0.00,CLR,,0.00,WeatherDisplay:10.37,2013-04-25 22:44:00,
2013-04-25 17:49:00,50.4,28.1,30.18,South,175,5.8,5.8,42,0.00,CLR,,0.00,WeatherDisplay:10.37,2013-04-25 22:49:00,
2013-04-25 17:54:00,50.2,28.0,30.18,SSE,160,4.6,4.6,42,0.00,CLR,,0.00,WeatherDisplay:10.37,2013-04-25 22:54:00,
2013-04-25 17:59:00,49.8,28.2,30.17,SSW,200,0.0,0.0,43,0.00,CLR,,0.00,WeatherDisplay:10.37,2013-04-25 22:59:00,
2013-04-25 18:04:00,50.5,28.8,30.17,SSW,200,1.2,1.2,43,0.00,CLR,,0.00,WeatherDisplay:10.37,2013-04-25 23:04:00,
2013-04-25 18:09:00,51.1,28.2,30.17,SW,217,3.5,3.5,41,0.00,CLR,,0.00,WeatherDisplay:10.37,2013-04-25 23:09:00,
2013-04-25 18:14:00,51.4,28.5,30.17,South,170,10.4,10.4,41,0.00,CLR,,0.00,WeatherDisplay:10.37,2013-04-25 23:14:00,
2013-04-25 18:19:00,50.9,28.0,30.17,South,169,10.4,10.4,41,0.00,CLR,,0.00,WeatherDisplay:10.37,2013-04-25 23:19:00,
2013-04-25 18:24:00,50.3,28.1,30.17,SSE,168,0.0,0.0,42,0.00,CLR,,0.00,WeatherDisplay:10.37,2013-04-25 23:24:00,
2013-04-25 18:29:00,50.3,28.1,30.17,SSW,211,0.0,0.0,42,0.00,CLR,,0.00,WeatherDisplay:10.37,2013-04-25 23:29:00,
2013-04-25 18:34:00,50.6,28.9,30.17,South,189,0.0,0.2,43,0.00,CLR,,0.00,WeatherDisplay:10.37,2013-04-25 23:34:00,
2013-04-25 18:39:00,50.6,28.9,30.17,SSW,199,6.9,6.9,43,0.00,CLR,,0.00,WeatherDisplay:10.37,2013-04-25 23:39:00,
2013-04-25 18:44:00,50.3,28.1,30.17,SSW,197,4.6,4.6,42,0.00,CLR,,0.00,WeatherDisplay:10.37,2013-04-25 23:44:00,
2013-04-25 18:49:00,50.3,28.6,30.17,SSW,194,3.5,3.5,43,0.00,CLR,,0.00,WeatherDisplay:10.37,2013-04-25 23:49:00,
2013-04-25 18:54:00,50.4,29.3,30.17,SSE,161,0.0,0.0,44,0.00,CLR,,0.00,WeatherDisplay:10.37,2013-04-25 23:54:00,
2013-04-25 18:59:00,50.3,28.6,30.17,SSE,149,9.2,9.2,43,0.00,CLR,,0.00,WeatherDisplay:10.37,2013-04-25 23:59:00,
2013-04-25 19:04:00,49.7,28.6,30.17,South,180,5.8,5.8,44,0.00,CLR,,0.00,WeatherDisplay:10.37,2013-04-26 00:04:00,
2013-04-25 19:09:00,49.2,28.2,30.17,SSE,167,3.5,3.5,44,0.00,CLR,,0.00,WeatherDisplay:10.37,2013-04-26 00:09:00,
2013-04-25 19:14:00,49.1,28.7,30.17,SSE,157,5.8,5.8,45,0.00,CLR,,0.00,WeatherDisplay:10.37,2013-04-26 00:14:00,
2013-04-25 19:19:00,48.9,28.5,30.17,South,182,9.2,9.2,45,0.00,CLR,,0.00,WeatherDisplay:10.37,2013-04-26 00:19:00,
2013-04-25 19:24:00,48.8,28.9,30.17,SE,137,5.8,5.8,46,0.00,CLR,,0.00,WeatherDisplay:10.37,2013-04-26 00:24:00,
2013-04-25 19:29:00,48.6,28.7,30.17,SSE,159,6.9,6.9,46,0.00,CLR,,0.00,WeatherDisplay:10.37,2013-04-26 00:29:00,
2013-04-25 19:34:00,48.5,29.2,30.17,SE,146,3.5,3.5,47,0.00,CLR,,0.00,WeatherDisplay:10.37,2013-04-26 00:34:00,
2013-04-25 19:39:00,48.3,29.0,30.17,SE,137,3.5,3.5,47,0.00,CLR,,0.00,WeatherDisplay:10.37,2013-04-26 00:39:00,
2013-04-25 19:44:00,48.1,29.3,30.17,SE,125,6.9,6.9,48,0.00,CLR,,0.00,WeatherDisplay:10.37,2013-04-26 00:44:00,
2013-04-25 19:49:00,47.9,29.1,30.17,SE,131,2.3,2.3,48,0.00,CLR,,0.00,WeatherDisplay:10.37,2013-04-26 00:49:00,
2013-04-25 19:54:00,47.6,28.9,30.17,SSE,155,0.0,0.0,48,0.00,CLR,,0.00,WeatherDisplay:10.37,2013-04-26 00:54:00,
2013-04-25 19:59:00,47.4,28.7,30.16,SE,134,4.6,4.6,48,0.00,CLR,,0.00,WeatherDisplay:10.37,2013-04-26 00:59:00,
2013-04-25 20:04:00,47.3,29.1,30.16,SSE,154,0.0,0.0,49,0.00,CLR,,0.00,WeatherDisplay:10.37,2013-04-26 01:04:00,
2013-04-25 20:09:00,47.1,29.4,30.16,ESE,123,3.5,3.5,50,0.00,CLR,,0.00,WeatherDisplay:10.37,2013-04-26 01:09:00,
2013-04-25 20:14:00,47.0,29.3,30.16,SE,132,0.0,0.0,50,0.00,CLR,,0.00,WeatherDisplay:10.37,2013-04-26 01:14:00,
2013-04-25 20:19:00,46.8,29.1,30.16,SE,132,0.0,0.0,50,0.00,CLR,,0.00,WeatherDisplay:10.37,2013-04-26 01:19:00,
2013-04-25 20:24:00,46.7,29.5,30.16,ESE,122,0.0,0.0,51,0.00,CLR,,0.00,WeatherDisplay:10.37,2013-04-26 01:24:00,
2013-04-25 20:29:00,46.5,29.3,30.16,ESE,114,2.3,2.3,51,0.00,CLR,,0.00,WeatherDisplay:10.37,2013-04-26 01:29:00,
2013-04-25 20:34:00,46.3,29.6,30.16,East,99,0.0,0.0,52,0.00,CLR,,0.00,WeatherDisplay:10.37,2013-04-26 01:34:00,
2013-04-25 20:39:00,46.1,29.4,30.16,East,99,0.0,0.0,52,0.00,CLR,,0.00,WeatherDisplay:10.37,2013-04-26 01:39:00,
2013-04-25 20:44:00,45.9,29.2,30.16,ESE,121,1.2,0.0,52,0.00,CLR,,0.00,WeatherDisplay:10.37,2013-04-26 01:44:00,
2013-04-25 20:49:00,45.8,29.6,30.16,ESE,120,3.5,3.5,53,0.00,CLR,,0.00,WeatherDisplay:10.37,2013-04-26 01:49:00,
2013-04-25 20:54:00,45.6,29.4,30.16,East,98,3.5,3.5,53,0.00,CLR,,0.00,WeatherDisplay:10.37,2013-04-26 01:54:00,
2013-04-25 20:59:00,45.5,29.3,30.16,SE,132,2.3,2.3,53,0.00,CLR,,0.00,WeatherDisplay:10.37,2013-04-26 01:59:00,
2013-04-25 21:04:00,45.4,29.7,30.15,ESE,117,4.6,4.6,54,0.00,CLR,,0.00,WeatherDisplay:10.37,2013-04-26 02:04:00,
2013-04-25 21:09:00,45.2,29.5,30.15,ESE,113,3.5,3.5,54,0.00,CLR,,0.00,WeatherDisplay:10.37,2013-04-26 02:09:00,
2013-04-25 21:14:00,45.1,29.4,30.16,ESE,119,3.5,3.5,54,0.00,CLR,,0.00,WeatherDisplay:10.37,2013-04-26 02:14:00,
2013-04-25 21:19:00,45.0,29.3,30.15,East,94,4.6,4.6,54,0.00,CLR,,0.00,WeatherDisplay:10.37,2013-04-26 02:19:00,
2013-04-25 21:24:00,45.0,29.8,30.15,ESE,123,5.8,5.8,55,0.00,CLR,,0.00,WeatherDisplay:10.37,2013-04-26 02:24:00,
2013-04-25 21:29:00,44.9,29.7,30.15,SE,124,2.3,2.3,55,0.00,CLR,,0.00,WeatherDisplay:10.37,2013-04-26 02:29:00,
2013-04-25 21:34:00,45.0,30.2,30.15,ESE,118,3.5,3.5,56,0.00,CLR,,0.00,WeatherDisplay:10.37,2013-04-26 02:34:00,
2013-04-25 21:39:00,45.0,30.2,30.15,ESE,113,6.9,6.9,56,0.00,CLR,,0.00,WeatherDisplay:10.37,2013-04-26 02:39:00,
2013-04-25 21:44:00,45.0,30.2,30.15,East,98,3.5,3.5,56,0.00,CLR,,0.00,WeatherDisplay:10.37,2013-04-26 02:44:00,
2013-04-25 21:49:00,45.0,30.7,30.14,ESE,115,3.5,3.5,57,0.00,CLR,,0.00,WeatherDisplay:10.37,2013-04-26 02:49:00,
2013-04-25 21:54:00,45.0,30.7,30.15,SE,134,4.6,4.6,57,0.00,CLR,,0.00,WeatherDisplay:10.37,2013-04-26 02:54:00,
2013-04-25 21:59:00,45.1,31.2,30.15,ESE,106,9.2,9.2,58,0.00,CLR,,0.00,WeatherDisplay:10.37,2013-04-26 02:59:00,
2013-04-25 22:04:00,45.1,31.2,30.14,ESE,115,5.8,5.8,58,0.00,CLR,,0.00,WeatherDisplay:10.37,2013-04-26 03:04:00,
2013-04-25 22:09:00,45.1,31.2,30.14,East,101,5.8,5.8,58,0.00,CLR,,0.00,WeatherDisplay:10.37,2013-04-26 03:09:00,
2013-04-25 22:14:00,45.2,30.9,30.14,SE,137,6.9,6.9,57,0.00,CLR,,0.00,WeatherDisplay:10.37,2013-04-26 03:14:00,
2013-04-25 22:19:00,45.2,30.9,30.14,ESE,119,10.4,10.4,57,0.00,CLR,,0.00,WeatherDisplay:10.37,2013-04-26 03:19:00,
2013-04-25 22:24:00,45.4,31.0,30.14,ESE,123,5.8,5.8,57,0.00,CLR,,0.00,WeatherDisplay:10.37,2013-04-26 03:24:00,
2013-04-25 22:29:00,45.4,31.0,30.14,SE,136,3.5,3.5,57,0.00,CLR,,0.00,WeatherDisplay:10.37,2013-04-26 03:29:00,
2013-04-25 22:34:00,45.4,31.0,30.14,South,180,13.8,13.8,57,0.00,CLR,,0.00,WeatherDisplay:10.37,2013-04-26 03:34:00,
2013-04-25 22:39:00,45.4,31.0,30.14,SE,136,6.9,6.9,57,0.00,CLR,,0.00,WeatherDisplay:10.37,2013-04-26 03:39:00,
2013-04-25 22:44:00,45.4,31.0,30.13,South,169,10.4,10.4,57,0.00,CLR,,0.00,WeatherDisplay:10.37,2013-04-26 03:44:00,
2013-04-25 22:49:00,45.3,31.0,30.13,ESE,119,12.7,12.7,57,0.00,CLR,,0.00,WeatherDisplay:10.37,2013-04-26 03:49:00,
2013-04-25 22:54:00,45.2,30.9,30.13,ESE,102,11.5,11.5,57,0.00,CLR,,0.00,WeatherDisplay:10.37,2013-04-26 03:54:00,
2013-04-25 22:59:00,45.1,31.2,30.13,SSE,147,9.0,9.0,58,0.00,CLR,,0.00,WeatherDisplay:10.37,2013-04-26 03:59:00,
2013-04-25 23:01:00,45.1,31.2,30.13,SE,143,12.7,12.7,58,0.00,CLR,,0.00,WeatherDisplay:10.37,2013-04-26 04:01:00,
2013-04-25 23:02:00,45.1,31.2,30.13,SSE,161,15.0,15.0,58,0.00,CLR,,0.00,WeatherDisplay:10.37,2013-04-26 04:02:00,
2013-04-25 23:07:00,45.0,31.1,30.12,SE,145,8.1,8.1,58,0.00,CLR,,0.00,WeatherDisplay:10.37,2013-04-26 04:07:00,
2013-04-25 23:12:00,45.0,31.1,30.12,South,181,4.6,4.6,58,0.00,CLR,,0.00,WeatherDisplay:10.37,2013-04-26 04:12:00,
2013-04-25 23:17:00,44.9,31.0,30.12,SE,141,4.6,4.6,58,0.00,CLR,,0.00,WeatherDisplay:10.37,2013-04-26 04:17:00,
2013-04-25 23:22:00,44.9,31.0,30.12,SSE,157,5.8,5.8,58,0.00,CLR,,0.00,WeatherDisplay:10.37,2013-04-26 04:22:00,
2013-04-25 23:27:00,44.9,31.0,30.11,SE,142,10.4,10.4,58,0.00,CLR,,0.00,WeatherDisplay:10.37,2013-04-26 04:27:00,
2013-04-25 23:32:00,44.8,30.9,30.11,SSE,153,6.9,6.9,58,0.00,CLR,,0.00,WeatherDisplay:10.37,2013-04-26 04:32:00,
2013-04-25 23:37:00,44.7,32.1,30.11,ESE,105,4.6,7.7,61,0.00,CLR,,0.00,WeatherDisplay:10.37,2013-04-26 04:37:00,
2013-04-25 23:42:00,44.7,30.8,30.11,South,188,12.7,12.7,58,0.00,CLR,,0.00,WeatherDisplay:10.37,2013-04-26 04:42:00,
2013-04-25 23:47:00,44.7,30.8,30.11,SSE,160,10.4,10.4,58,0.00,CLR,,0.00,WeatherDisplay:10.37,2013-04-26 04:47:00,
2013-04-25 23:52:00,44.7,30.8,30.11,ESE,117,11.5,11.5,58,0.00,CLR,,0.00,WeatherDisplay:10.37,2013-04-26 04:52:00,
2013-04-25 23:57:00,44.7,30.8,30.10,SE,129,15.0,15.0,58,0.00,CLR,,0.00,WeatherDisplay:10.37,2013-04-26 04:57:00,